sensor_id;sensor_type;location;lat;lon;timestamp;temperature;humidity
65235;DHT22;51820;48.374;10.930;2022-07-23T00:04:40;25.70;45.30
65235;DHT22;51820;48.374;10.930;2022-07-23T00:07:10;25.80;45.60
65235;DHT22;51820;48.374;10.930;2022-07-23T00:12:06;26.10;46.00
65235;DHT22;51820;48.374;10.930;2022-07-23T00:14:35;25.30;45.70
65235;DHT22;51820;48.374;10.930;2022-07-23T00:17:03;25.80;40.00
65235;DHT22;51820;48.374;10.930;2022-07-23T00:19:31;25.30;47.30
65235;DHT22;51820;48.374;10.930;2022-07-23T00:21:59;25.10;48.60
65235;DHT22;51820;48.374;10.930;2022-07-23T00:24:29;24.90;48.70
65235;DHT22;51820;48.374;10.930;2022-07-23T00:29:27;25.80;48.60
65235;DHT22;51820;48.374;10.930;2022-07-23T00:31:56;25.50;47.70
65235;DHT22;51820;48.374;10.930;2022-07-23T00:36:53;25.00;46.70
65235;DHT22;51820;48.374;10.930;2022-07-23T00:39:21;24.70;45.90
65235;DHT22;51820;48.374;10.930;2022-07-23T00:41:51;25.80;47.20
65235;DHT22;51820;48.374;10.930;2022-07-23T00:44:23;24.40;45.60
65235;DHT22;51820;48.374;10.930;2022-07-23T00:46:53;26.10;36.10
65235;DHT22;51820;48.374;10.930;2022-07-23T00:49:24;24.70;44.20
65235;DHT22;51820;48.374;10.930;2022-07-23T00:51:53;26.10;36.10
65235;DHT22;51820;48.374;10.930;2022-07-23T00:54:23;25.50;45.50
65235;DHT22;51820;48.374;10.930;2022-07-23T00:56:53;26.10;36.60
65235;DHT22;51820;48.374;10.930;2022-07-23T00:59:21;26.10;46.60
65235;DHT22;51820;48.374;10.930;2022-07-23T01:01:50;25.70;47.10
65235;DHT22;51820;48.374;10.930;2022-07-23T01:06:48;26.00;38.60
65235;DHT22;51820;48.374;10.930;2022-07-23T01:09:17;24.70;48.50
65235;DHT22;51820;48.374;10.930;2022-07-23T01:14:17;28.90;54.70
65235;DHT22;51820;48.374;10.930;2022-07-23T01:16:47;25.30;43.40
65235;DHT22;51820;48.374;10.930;2022-07-23T01:19:17;24.10;53.60
65235;DHT22;51820;48.374;10.930;2022-07-23T01:21:48;24.80;44.80
65235;DHT22;51820;48.374;10.930;2022-07-23T01:24:18;24.90;45.70
65235;DHT22;51820;48.374;10.930;2022-07-23T01:26:59;23.60;57.80
65235;DHT22;51820;48.374;10.930;2022-07-23T01:29:29;23.60;59.60
65235;DHT22;51820;48.374;10.930;2022-07-23T01:32:00;23.60;60.40
65235;DHT22;51820;48.374;10.930;2022-07-23T01:34:28;23.30;62.30
65235;DHT22;51820;48.374;10.930;2022-07-23T01:36:57;23.70;62.90
65235;DHT22;51820;48.374;10.930;2022-07-23T01:39:26;23.60;52.90
65235;DHT22;51820;48.374;10.930;2022-07-23T01:41:57;23.60;64.60
65235;DHT22;51820;48.374;10.930;2022-07-23T01:44:27;22.90;65.30
65235;DHT22;51820;48.374;10.930;2022-07-23T01:46:55;22.60;65.80
65235;DHT22;51820;48.374;10.930;2022-07-23T01:54:47;22.30;66.20
65235;DHT22;51820;48.374;10.930;2022-07-23T01:59:45;23.00;56.40
65235;DHT22;51820;48.374;10.930;2022-07-23T02:02:13;21.10;69.30
65235;DHT22;51820;48.374;10.930;2022-07-23T02:04:41;21.60;67.00
65235;DHT22;51820;48.374;10.930;2022-07-23T02:12:08;21.20;67.50
65235;DHT22;51820;48.374;10.930;2022-07-23T02:14:36;21.60;67.70
65235;DHT22;51820;48.374;10.930;2022-07-23T02:19:34;27.30;72.40
65235;DHT22;51820;48.374;10.930;2022-07-23T02:22:03;20.90;68.30
65235;DHT22;51820;48.374;10.930;2022-07-23T02:29:29;22.30;68.70
65235;DHT22;51820;48.374;10.930;2022-07-23T02:46:55;22.60;58.50
65235;DHT22;51820;48.374;10.930;2022-07-23T02:49:23;21.00;69.30
65235;DHT22;51820;48.374;10.930;2022-07-23T02:51:51;21.70;69.80
65235;DHT22;51820;48.374;10.930;2022-07-23T03:04:19;22.40;70.80
65235;DHT22;51820;48.374;10.930;2022-07-23T03:16:43;20.30;70.50
65235;DHT22;51820;48.374;10.930;2022-07-23T03:19:11;21.10;71.20
65235;DHT22;51820;48.374;10.930;2022-07-23T03:21:42;20.50;71.10
65235;DHT22;51820;48.374;10.930;2022-07-23T03:24:11;22.50;72.40
65235;DHT22;51820;48.374;10.930;2022-07-23T03:31:36;21.60;72.80
65235;DHT22;51820;48.374;10.930;2022-07-23T03:34:05;20.60;71.80
65235;DHT22;51820;48.374;10.930;2022-07-23T03:36:33;21.60;72.70
65235;DHT22;51820;48.374;10.930;2022-07-23T03:39:03;21.40;72.60
65235;DHT22;51820;48.374;10.930;2022-07-23T03:41:38;20.70;73.40
65235;DHT22;51820;48.374;10.930;2022-07-23T03:44:06;21.10;73.10
65235;DHT22;51820;48.374;10.930;2022-07-23T03:47:04;21.20;72.90
65235;DHT22;51820;48.374;10.930;2022-07-23T03:49:33;22.00;61.10
65235;DHT22;51820;48.374;10.930;2022-07-23T03:52:05;22.00;60.90
65235;DHT22;51820;48.374;10.930;2022-07-23T03:54:34;22.00;60.80
65235;DHT22;51820;48.374;10.930;2022-07-23T03:59:32;21.60;72.60
65235;DHT22;51820;48.374;10.930;2022-07-23T04:02:03;20.20;71.40
65235;DHT22;51820;48.374;10.930;2022-07-23T04:04:32;20.70;71.90
65235;DHT22;51820;48.374;10.930;2022-07-23T04:07:00;21.10;71.70
65235;DHT22;51820;48.374;10.930;2022-07-23T04:09:30;26.00;74.90
65235;DHT22;51820;48.374;10.930;2022-07-23T04:12:00;20.30;72.00
65235;DHT22;51820;48.374;10.930;2022-07-23T04:16:57;21.50;71.70
65235;DHT22;51820;48.374;10.930;2022-07-23T04:22:04;21.20;72.30
65235;DHT22;51820;48.374;10.930;2022-07-23T04:24:39;22.00;60.50
65235;DHT22;51820;48.374;10.930;2022-07-23T04:27:10;22.00;60.40
65235;DHT22;51820;48.374;10.930;2022-07-23T04:29:39;20.00;71.30
65235;DHT22;51820;48.374;10.930;2022-07-23T04:32:08;20.80;71.20
65235;DHT22;51820;48.374;10.930;2022-07-23T04:34:36;20.90;71.60
65235;DHT22;51820;48.374;10.930;2022-07-23T04:42:04;22.00;60.10
65235;DHT22;51820;48.374;10.930;2022-07-23T04:47:41;22.00;59.60
65235;DHT22;51820;48.374;10.930;2022-07-23T04:50:12;20.20;70.00
65235;DHT22;51820;48.374;10.930;2022-07-23T04:52:44;21.50;70.40
65235;DHT22;51820;48.374;10.930;2022-07-23T04:55:12;21.80;70.30
65235;DHT22;51820;48.374;10.930;2022-07-23T04:57:40;20.80;70.40
65235;DHT22;51820;48.374;10.930;2022-07-23T05:00:09;21.00;69.90
65235;DHT22;51820;48.374;10.930;2022-07-23T05:02:37;20.30;69.60
65235;DHT22;51820;48.374;10.930;2022-07-23T05:05:07;25.70;73.90
65235;DHT22;51820;48.374;10.930;2022-07-23T05:07:36;21.50;70.00
65235;DHT22;51820;48.374;10.930;2022-07-23T05:10:05;21.80;69.20
65235;DHT22;51820;48.374;10.930;2022-07-23T05:12:33;21.50;69.00
65235;DHT22;51820;48.374;10.930;2022-07-23T05:15:01;21.30;68.90
65235;DHT22;51820;48.374;10.930;2022-07-23T05:17:30;21.30;70.80
65235;DHT22;51820;48.374;10.930;2022-07-23T05:20:01;21.90;70.00
65235;DHT22;51820;48.374;10.930;2022-07-23T05:22:30;22.20;59.00
65235;DHT22;51820;48.374;10.930;2022-07-23T05:25:00;20.60;72.60
65235;DHT22;51820;48.374;10.930;2022-07-23T05:27:28;24.00;74.30
65235;DHT22;51820;48.374;10.930;2022-07-23T05:29:56;20.40;69.40
65235;DHT22;51820;48.374;10.930;2022-07-23T05:32:24;25.70;73.60
65235;DHT22;51820;48.374;10.930;2022-07-23T05:35:04;22.10;58.80
65235;DHT22;51820;48.374;10.930;2022-07-23T05:37:37;26.50;73.30
65235;DHT22;51820;48.374;10.930;2022-07-23T05:40:07;21.90;70.70
65235;DHT22;51820;48.374;10.930;2022-07-23T05:42:37;20.70;70.10
65235;DHT22;51820;48.374;10.930;2022-07-23T05:45:06;24.50;74.50
65235;DHT22;51820;48.374;10.930;2022-07-23T05:47:41;26.60;73.20
65235;DHT22;51820;48.374;10.930;2022-07-23T05:50:10;21.60;70.20
65235;DHT22;51820;48.374;10.930;2022-07-23T05:52:47;21.20;69.50
65235;DHT22;51820;48.374;10.930;2022-07-23T05:55:32;20.40;69.50
65235;DHT22;51820;48.374;10.930;2022-07-23T05:58:01;22.50;70.60
65235;DHT22;51820;48.374;10.930;2022-07-23T06:00:30;21.20;69.10
65235;DHT22;51820;48.374;10.930;2022-07-23T06:02:58;22.20;69.70
65235;DHT22;51820;48.374;10.930;2022-07-23T06:05:29;21.20;69.20
65235;DHT22;51820;48.374;10.930;2022-07-23T06:07:58;21.00;69.80
65235;DHT22;51820;48.374;10.930;2022-07-23T06:12:57;21.70;70.10
65235;DHT22;51820;48.374;10.930;2022-07-23T06:15:29;20.70;69.10
65235;DHT22;51820;48.374;10.930;2022-07-23T06:17:58;20.90;69.20
65235;DHT22;51820;48.374;10.930;2022-07-23T06:22:58;20.70;68.60
65235;DHT22;51820;48.374;10.930;2022-07-23T06:25:29;21.70;70.20
65235;DHT22;51820;48.374;10.930;2022-07-23T06:35:24;21.40;69.60
65235;DHT22;51820;48.374;10.930;2022-07-23T06:40:22;22.10;70.20
65235;DHT22;51820;48.374;10.930;2022-07-23T06:42:51;22.80;72.90
65235;DHT22;51820;48.374;10.930;2022-07-23T06:50:20;21.50;69.40
65235;DHT22;51820;48.374;10.930;2022-07-23T06:52:49;20.30;69.20
65235;DHT22;51820;48.374;10.930;2022-07-23T06:55:17;20.10;69.30
65235;DHT22;51820;48.374;10.930;2022-07-23T06:57:46;20.70;69.50
65235;DHT22;51820;48.374;10.930;2022-07-23T07:02:44;21.50;70.30
65235;DHT22;51820;48.374;10.930;2022-07-23T07:05:12;22.30;70.60
65235;DHT22;51820;48.374;10.930;2022-07-23T07:07:40;19.90;71.10
65235;DHT22;51820;48.374;10.930;2022-07-23T07:10:09;26.40;74.40
65235;DHT22;51820;48.374;10.930;2022-07-23T07:15:11;21.80;71.90
65235;DHT22;51820;48.374;10.930;2022-07-23T07:17:40;21.80;72.90
65235;DHT22;51820;48.374;10.930;2022-07-23T07:20:10;20.20;73.20
65235;DHT22;51820;48.374;10.930;2022-07-23T07:22:38;20.60;66.70
65235;DHT22;51820;48.374;10.930;2022-07-23T07:25:07;21.10;71.60
65235;DHT22;51820;48.374;10.930;2022-07-23T07:27:35;21.50;71.40
65235;DHT22;51820;48.374;10.930;2022-07-23T07:30:04;20.20;71.10
65235;DHT22;51820;48.374;10.930;2022-07-23T07:32:34;22.40;72.60
65235;DHT22;51820;48.374;10.930;2022-07-23T07:35:23;22.30;62.10
65235;DHT22;51820;48.374;10.930;2022-07-23T07:37:52;22.20;61.70
65235;DHT22;51820;48.374;10.930;2022-07-23T07:42:50;22.20;61.50
65235;DHT22;51820;48.374;10.930;2022-07-23T07:45:20;22.20;61.60
65235;DHT22;51820;48.374;10.930;2022-07-23T07:47:50;22.00;62.60
65235;DHT22;51820;48.374;10.930;2022-07-23T07:50:20;22.20;62.30
65235;DHT22;51820;48.374;10.930;2022-07-23T07:52:48;21.10;75.00
65235;DHT22;51820;48.374;10.930;2022-07-23T07:55:17;21.40;63.20
65235;DHT22;51820;48.374;10.930;2022-07-23T08:00:16;20.70;71.60
65235;DHT22;51820;48.374;10.930;2022-07-23T08:02:46;22.40;61.20
65235;DHT22;51820;48.374;10.930;2022-07-23T08:05:20;20.40;71.70
65235;DHT22;51820;48.374;10.930;2022-07-23T08:07:54;21.80;72.70
65235;DHT22;51820;48.374;10.930;2022-07-23T08:10:23;21.20;72.60
65235;DHT22;51820;48.374;10.930;2022-07-23T08:12:54;22.50;72.00
65235;DHT22;51820;48.374;10.930;2022-07-23T08:15:25;20.70;71.00
65235;DHT22;51820;48.374;10.930;2022-07-23T08:17:53;22.00;72.40
65235;DHT22;51820;48.374;10.930;2022-07-23T08:20:23;21.20;71.70
65235;DHT22;51820;48.374;10.930;2022-07-23T08:22:56;22.90;72.10
65235;DHT22;51820;48.374;10.930;2022-07-23T08:25:26;22.70;72.30
65235;DHT22;51820;48.374;10.930;2022-07-23T08:27:54;21.00;71.10
65235;DHT22;51820;48.374;10.930;2022-07-23T08:30:23;26.00;75.00
65235;DHT22;51820;48.374;10.930;2022-07-23T08:32:54;20.40;71.90
65235;DHT22;51820;48.374;10.930;2022-07-23T08:35:25;23.00;60.50
65235;DHT22;51820;48.374;10.930;2022-07-23T08:37:55;23.20;59.90
65235;DHT22;51820;48.374;10.930;2022-07-23T08:40:24;21.50;68.50
65235;DHT22;51820;48.374;10.930;2022-07-23T08:42:57;23.60;58.40
65235;DHT22;51820;48.374;10.930;2022-07-23T08:45:26;21.50;66.90
65235;DHT22;51820;48.374;10.930;2022-07-23T08:47:56;22.60;65.90
65235;DHT22;51820;48.374;10.930;2022-07-23T08:50:30;22.30;66.00
65235;DHT22;51820;48.374;10.930;2022-07-23T08:52:59;24.40;54.40
65235;DHT22;51820;48.374;10.930;2022-07-23T09:00:25;22.80;61.20
65235;DHT22;51820;48.374;10.930;2022-07-23T09:05:21;24.00;60.80
65235;DHT22;51820;48.374;10.930;2022-07-23T09:08:15;23.20;59.80
65235;DHT22;51820;48.374;10.930;2022-07-23T09:10:46;29.40;62.20
65235;DHT22;51820;48.374;10.930;2022-07-23T09:13:32;25.40;50.50
65235;DHT22;51820;48.374;10.930;2022-07-23T09:16:03;25.60;49.20
65235;DHT22;51820;48.374;10.930;2022-07-23T09:18:35;23.90;58.00
65235;DHT22;51820;48.374;10.930;2022-07-23T09:21:20;24.00;58.00
65235;DHT22;51820;48.374;10.930;2022-07-23T09:23:54;30.10;62.50
65235;DHT22;51820;48.374;10.930;2022-07-23T09:26:25;24.10;57.70
65235;DHT22;51820;48.374;10.930;2022-07-23T09:29:04;24.70;58.30
65235;DHT22;51820;48.374;10.930;2022-07-23T09:31:35;26.30;48.70
65235;DHT22;51820;48.374;10.930;2022-07-23T09:34:16;26.40;48.40
65235;DHT22;51820;48.374;10.930;2022-07-23T09:36:45;26.50;47.60
65235;DHT22;51820;48.374;10.930;2022-07-23T09:39:30;26.60;47.60
65235;DHT22;51820;48.374;10.930;2022-07-23T09:45:10;24.90;54.80
65235;DHT22;51820;48.374;10.930;2022-07-23T09:53:49;27.00;46.30
65235;DHT22;51820;48.374;10.930;2022-07-23T09:56:32;27.20;45.60
65235;DHT22;51820;48.374;10.930;2022-07-23T09:59:01;25.40;53.40
65235;DHT22;51820;48.374;10.930;2022-07-23T10:01:39;25.80;53.20
65235;DHT22;51820;48.374;10.930;2022-07-23T10:06:59;27.00;52.50
65235;DHT22;51820;48.374;10.930;2022-07-23T10:10:06;26.00;51.80
65235;DHT22;51820;48.374;10.930;2022-07-23T10:12:59;27.50;45.20
65235;DHT22;51820;48.374;10.930;2022-07-23T10:15:51;26.00;50.30
65235;DHT22;51820;48.374;10.930;2022-07-23T10:20:51;27.10;50.40
65235;DHT22;51820;48.374;10.930;2022-07-23T10:23:24;26.00;48.90
65235;DHT22;51820;48.374;10.930;2022-07-23T10:25:58;27.50;49.40
65235;DHT22;51820;48.374;10.930;2022-07-23T10:28:56;27.90;42.30
65235;DHT22;51820;48.374;10.930;2022-07-23T10:31:47;28.00;41.10
65235;DHT22;51820;48.374;10.930;2022-07-23T10:34:40;28.10;40.40
65235;DHT22;51820;48.374;10.930;2022-07-23T10:37:25;28.20;40.00
65235;DHT22;51820;48.374;10.930;2022-07-23T10:40:22;28.20;41.00
65235;DHT22;51820;48.374;10.930;2022-07-23T10:43:13;27.20;47.40
65235;DHT22;51820;48.374;10.930;2022-07-23T10:45:50;28.30;39.40
65235;DHT22;51820;48.374;10.930;2022-07-23T10:48:20;28.40;39.80
65235;DHT22;51820;48.374;10.930;2022-07-23T10:51:12;30.50;50.40
65235;DHT22;51820;48.374;10.930;2022-07-23T10:54:28;28.30;39.80
65235;DHT22;51820;48.374;10.930;2022-07-23T10:57:09;28.30;40.50
65235;DHT22;51820;48.374;10.930;2022-07-23T11:06:02;28.30;39.90
65235;DHT22;51820;48.374;10.930;2022-07-23T11:08:33;28.10;46.90
65235;DHT22;51820;48.374;10.930;2022-07-23T11:11:15;28.30;39.80
65235;DHT22;51820;48.374;10.930;2022-07-23T11:16:46;28.10;39.80
65235;DHT22;51820;48.374;10.930;2022-07-23T11:21:49;28.10;41.40
65235;DHT22;51820;48.374;10.930;2022-07-23T11:24:19;28.10;40.00
65235;DHT22;51820;48.374;10.930;2022-07-23T11:26:54;26.70;46.70
65235;DHT22;51820;48.374;10.930;2022-07-23T11:29:38;27.70;48.40
65235;DHT22;51820;48.374;10.930;2022-07-23T11:32:32;27.30;48.00
65235;DHT22;51820;48.374;10.930;2022-07-23T11:35:26;28.30;40.00
65235;DHT22;51820;48.374;10.930;2022-07-23T11:38:04;27.60;47.50
65235;DHT22;51820;48.374;10.930;2022-07-23T11:40:35;28.20;41.40
65235;DHT22;51820;48.374;10.930;2022-07-23T11:43:06;28.20;40.80
65235;DHT22;51820;48.374;10.930;2022-07-23T11:45:36;27.00;46.30
65235;DHT22;51820;48.374;10.930;2022-07-23T11:48:31;28.40;47.50
65235;DHT22;51820;48.374;10.930;2022-07-23T11:51:37;28.30;40.90
65235;DHT22;51820;48.374;10.930;2022-07-23T11:54:28;26.40;46.50
65235;DHT22;51820;48.374;10.930;2022-07-23T11:58:36;28.40;41.10
65235;DHT22;51820;48.374;10.930;2022-07-23T12:01:55;27.80;47.90
65235;DHT22;51820;48.374;10.930;2022-07-23T12:04:24;27.90;47.70
65235;DHT22;51820;48.374;10.930;2022-07-23T12:06:53;27.90;48.10
65235;DHT22;51820;48.374;10.930;2022-07-23T12:09:22;28.60;40.80
65235;DHT22;51820;48.374;10.930;2022-07-23T12:11:57;27.20;48.20
65235;DHT22;51820;48.374;10.930;2022-07-23T12:14:25;27.20;47.70
65235;DHT22;51820;48.374;10.930;2022-07-23T12:17:07;28.90;40.40
65235;DHT22;51820;48.374;10.930;2022-07-23T12:19:36;28.90;40.90
65235;DHT22;51820;48.374;10.930;2022-07-23T12:24:58;28.70;40.50
65235;DHT22;51820;48.374;10.930;2022-07-23T12:27:29;27.30;47.60
65235;DHT22;51820;48.374;10.930;2022-07-23T12:30:14;28.50;40.90
65235;DHT22;51820;48.374;10.930;2022-07-23T12:32:45;28.50;41.00
65235;DHT22;51820;48.374;10.930;2022-07-23T12:35:14;28.40;42.30
65235;DHT22;51820;48.374;10.930;2022-07-23T12:37:45;28.40;41.30
65235;DHT22;51820;48.374;10.930;2022-07-23T12:40:37;28.70;42.00
65235;DHT22;51820;48.374;10.930;2022-07-23T12:43:27;28.40;41.80
65235;DHT22;51820;48.374;10.930;2022-07-23T12:46:00;28.10;49.40
65235;DHT22;51820;48.374;10.930;2022-07-23T12:48:31;28.50;41.00
65235;DHT22;51820;48.374;10.930;2022-07-23T12:51:02;28.50;42.00
65235;DHT22;51820;48.374;10.930;2022-07-23T12:53:32;27.50;49.00
65235;DHT22;51820;48.374;10.930;2022-07-23T12:56:05;28.40;40.40
65235;DHT22;51820;48.374;10.930;2022-07-23T12:58:46;28.40;41.40
65235;DHT22;51820;48.374;10.930;2022-07-23T13:01:26;26.90;48.70
65235;DHT22;51820;48.374;10.930;2022-07-23T13:03:57;27.20;49.10
65235;DHT22;51820;48.374;10.930;2022-07-23T13:06:26;26.70;49.70
65235;DHT22;51820;48.374;10.930;2022-07-23T13:08:55;27.40;50.70
65235;DHT22;51820;48.374;10.930;2022-07-23T13:11:24;27.30;50.20
65235;DHT22;51820;48.374;10.930;2022-07-23T13:13:53;27.00;50.10
65235;DHT22;51820;48.374;10.930;2022-07-23T13:16:21;27.50;50.60
65235;DHT22;51820;48.374;10.930;2022-07-23T13:18:53;27.40;50.70
65235;DHT22;51820;48.374;10.930;2022-07-23T13:21:21;28.00;44.20
65235;DHT22;51820;48.374;10.930;2022-07-23T13:23:50;26.70;51.20
65235;DHT22;51820;48.374;10.930;2022-07-23T13:26:18;27.90;44.70
65235;DHT22;51820;48.374;10.930;2022-07-23T13:28:47;27.80;45.00
65235;DHT22;51820;48.374;10.930;2022-07-23T13:31:17;27.00;52.50
65235;DHT22;51820;48.374;10.930;2022-07-23T13:33:46;26.80;51.80
65235;DHT22;51820;48.374;10.930;2022-07-23T13:36:15;28.30;53.20
65235;DHT22;51820;48.374;10.930;2022-07-23T13:38:43;26.50;52.90
65235;DHT22;51820;48.374;10.930;2022-07-23T13:41:12;26.20;52.80
65235;DHT22;51820;48.374;10.930;2022-07-23T13:43:40;26.30;52.20
65235;DHT22;51820;48.374;10.930;2022-07-23T13:46:10;25.60;52.20
65235;DHT22;51820;48.374;10.930;2022-07-23T13:48:38;26.50;52.60
65235;DHT22;51820;48.374;10.930;2022-07-23T13:51:07;26.60;52.00
65235;DHT22;51820;48.374;10.930;2022-07-23T13:56:06;26.90;51.80
65235;DHT22;51820;48.374;10.930;2022-07-23T13:58:34;27.20;51.20
65235;DHT22;51820;48.374;10.930;2022-07-23T14:01:03;27.70;51.90
65235;DHT22;51820;48.374;10.930;2022-07-23T14:03:32;27.80;57.00
65235;DHT22;51820;48.374;10.930;2022-07-23T14:06:05;27.80;51.20
65235;DHT22;51820;48.374;10.930;2022-07-23T14:09:03;26.80;50.90
65235;DHT22;51820;48.374;10.930;2022-07-23T14:11:34;27.90;52.20
65235;DHT22;51820;48.374;10.930;2022-07-23T14:14:02;26.70;51.30
65235;DHT22;51820;48.374;10.930;2022-07-23T14:16:30;26.60;51.20
65235;DHT22;51820;48.374;10.930;2022-07-23T14:19:01;28.00;45.70
65235;DHT22;51820;48.374;10.930;2022-07-23T14:21:30;28.00;52.20
65235;DHT22;51820;48.374;10.930;2022-07-23T14:23:59;27.10;51.20
65235;DHT22;51820;48.374;10.930;2022-07-23T14:26:27;28.10;45.50
65235;DHT22;51820;48.374;10.930;2022-07-23T14:28:56;27.20;50.90
65235;DHT22;51820;48.374;10.930;2022-07-23T14:31:24;27.20;51.70
65235;DHT22;51820;48.374;10.930;2022-07-23T14:33:52;27.20;50.50
65235;DHT22;51820;48.374;10.930;2022-07-23T14:36:23;26.70;51.00
65235;DHT22;51820;48.374;10.930;2022-07-23T14:38:52;28.20;51.30
65235;DHT22;51820;48.374;10.930;2022-07-23T14:41:20;28.00;50.10
65235;DHT22;51820;48.374;10.930;2022-07-23T14:43:53;28.30;49.90
65235;DHT22;51820;48.374;10.930;2022-07-23T14:46:22;28.50;43.50
65235;DHT22;51820;48.374;10.930;2022-07-23T14:48:51;28.60;45.80
65235;DHT22;51820;48.374;10.930;2022-07-23T14:51:19;28.50;43.10
65235;DHT22;51820;48.374;10.930;2022-07-23T14:53:49;27.00;48.10
65235;DHT22;51820;48.374;10.930;2022-07-23T14:56:18;26.60;47.70
65235;DHT22;51820;48.374;10.930;2022-07-23T14:58:48;27.50;45.90
65235;DHT22;51820;48.374;10.930;2022-07-23T15:01:16;28.50;47.20
65235;DHT22;51820;48.374;10.930;2022-07-23T15:03:45;27.00;47.70
65235;DHT22;51820;48.374;10.930;2022-07-23T15:06:15;27.20;47.30
65235;DHT22;51820;48.374;10.930;2022-07-23T15:08:48;26.70;48.10
65235;DHT22;51820;48.374;10.930;2022-07-23T15:13:51;27.10;47.80
65235;DHT22;51820;48.374;10.930;2022-07-23T15:16:19;27.40;48.30
65235;DHT22;51820;48.374;10.930;2022-07-23T15:18:50;26.90;47.60
65235;DHT22;51820;48.374;10.930;2022-07-23T15:21:24;26.30;48.50
65235;DHT22;51820;48.374;10.930;2022-07-23T15:23:55;26.70;48.70
65235;DHT22;51820;48.374;10.930;2022-07-23T15:26:27;27.50;49.10
65235;DHT22;51820;48.374;10.930;2022-07-23T15:28:57;28.00;43.60
65235;DHT22;51820;48.374;10.930;2022-07-23T15:33:59;26.90;49.00
65235;DHT22;51820;48.374;10.930;2022-07-23T15:36:33;27.20;49.30
65235;DHT22;51820;48.374;10.930;2022-07-23T15:39:16;27.00;43.70
65235;DHT22;51820;48.374;10.930;2022-07-23T15:42:34;26.30;50.20
65235;DHT22;51820;48.374;10.930;2022-07-23T15:45:22;26.80;50.40
65235;DHT22;51820;48.374;10.930;2022-07-23T15:52:10;27.90;43.00
65235;DHT22;51820;48.374;10.930;2022-07-23T15:54:45;27.90;43.20
65235;DHT22;51820;48.374;10.930;2022-07-23T15:57:22;26.20;50.40
65235;DHT22;51820;48.374;10.930;2022-07-23T15:59:51;27.10;50.10
65235;DHT22;51820;48.374;10.930;2022-07-23T16:02:25;27.20;50.50
65235;DHT22;51820;48.374;10.930;2022-07-23T16:04:54;26.90;49.90
65235;DHT22;51820;48.374;10.930;2022-07-23T16:07:22;27.10;50.00
65235;DHT22;51820;48.374;10.930;2022-07-23T16:09:53;27.20;45.90
65235;DHT22;51820;48.374;10.930;2022-07-23T16:12:23;31.40;54.80
65235;DHT22;51820;48.374;10.930;2022-07-23T16:14:51;28.10;50.70
65235;DHT22;51820;48.374;10.930;2022-07-23T16:17:20;28.20;50.40
65235;DHT22;51820;48.374;10.930;2022-07-23T16:19:48;26.50;49.50
65235;DHT22;51820;48.374;10.930;2022-07-23T16:22:16;27.40;46.60
65235;DHT22;51820;48.374;10.930;2022-07-23T16:24:44;27.00;49.20
65235;DHT22;51820;48.374;10.930;2022-07-23T16:27:18;27.40;49.60
65235;DHT22;51820;48.374;10.930;2022-07-23T16:29:47;27.40;42.20
65235;DHT22;51820;48.374;10.930;2022-07-23T16:32:15;27.00;49.60
65235;DHT22;51820;48.374;10.930;2022-07-23T16:34:43;27.30;49.30
65235;DHT22;51820;48.374;10.930;2022-07-23T16:37:12;26.40;49.20
65235;DHT22;51820;48.374;10.930;2022-07-23T16:39:40;26.60;48.80
65235;DHT22;51820;48.374;10.930;2022-07-23T16:42:11;28.10;43.20
65235;DHT22;51820;48.374;10.930;2022-07-23T16:44:42;28.10;43.20
65235;DHT22;51820;48.374;10.930;2022-07-23T16:47:23;27.60;49.10
65235;DHT22;51820;48.374;10.930;2022-07-23T16:49:55;31.30;52.40
65235;DHT22;51820;48.374;10.930;2022-07-23T16:52:29;28.00;42.90
65235;DHT22;51820;48.374;10.930;2022-07-23T16:55:03;26.60;48.70
65235;DHT22;51820;48.374;10.930;2022-07-23T16:57:36;31.80;53.60
65235;DHT22;51820;48.374;10.930;2022-07-23T17:00:08;28.00;42.80
65235;DHT22;51820;48.374;10.930;2022-07-23T17:02:37;28.00;42.70
65235;DHT22;51820;48.374;10.930;2022-07-23T17:05:06;28.00;50.10
65235;DHT22;51820;48.374;10.930;2022-07-23T17:07:36;26.50;48.80
65235;DHT22;51820;48.374;10.930;2022-07-23T17:10:06;27.10;49.10
65235;DHT22;51820;48.374;10.930;2022-07-23T17:12:34;26.80;48.80
65235;DHT22;51820;48.374;10.930;2022-07-23T17:15:03;27.90;42.70
65235;DHT22;51820;48.374;10.930;2022-07-23T17:17:34;27.90;42.80
65235;DHT22;51820;48.374;10.930;2022-07-23T17:20:04;26.90;48.90
65235;DHT22;51820;48.374;10.930;2022-07-23T17:22:34;26.20;48.80
65235;DHT22;51820;48.374;10.930;2022-07-23T17:25:03;26.10;49.20
65235;DHT22;51820;48.374;10.930;2022-07-23T17:27:36;27.90;50.10
65235;DHT22;51820;48.374;10.930;2022-07-23T17:30:06;27.60;46.70
65235;DHT22;51820;48.374;10.930;2022-07-23T17:32:36;27.00;49.40
65235;DHT22;51820;48.374;10.930;2022-07-23T17:35:05;28.00;50.10
65235;DHT22;51820;48.374;10.930;2022-07-23T17:37:36;28.60;55.60
65235;DHT22;51820;48.374;10.930;2022-07-23T17:40:05;27.20;49.50
65235;DHT22;51820;48.374;10.930;2022-07-23T17:42:33;27.80;42.60
65235;DHT22;51820;48.374;10.930;2022-07-23T17:45:04;26.70;48.60
65235;DHT22;51820;48.374;10.930;2022-07-23T17:47:33;26.40;48.20
65235;DHT22;51820;48.374;10.930;2022-07-23T17:50:03;27.30;48.80
65235;DHT22;51820;48.374;10.930;2022-07-23T17:55:01;27.20;48.70
65235;DHT22;51820;48.374;10.930;2022-07-23T18:00:54;28.00;53.10
65235;DHT22;51820;48.374;10.930;2022-07-23T18:05:53;26.50;48.20
65235;DHT22;51820;48.374;10.930;2022-07-23T18:08:23;26.60;48.20
65235;DHT22;51820;48.374;10.930;2022-07-23T18:10:52;27.80;42.20
65235;DHT22;51820;48.374;10.930;2022-07-23T18:13:21;28.00;49.30
65235;DHT22;51820;48.374;10.930;2022-07-23T18:15:49;25.80;47.70
65235;DHT22;51820;48.374;10.930;2022-07-23T18:21:18;27.80;41.20
65235;DHT22;51820;48.374;10.930;2022-07-23T18:23:50;27.20;48.40
65235;DHT22;51820;48.374;10.930;2022-07-23T18:26:21;27.70;40.60
65235;DHT22;51820;48.374;10.930;2022-07-23T18:28:50;27.70;49.20
65235;DHT22;51820;48.374;10.930;2022-07-23T18:33:47;27.90;53.20
65235;DHT22;51820;48.374;10.930;2022-07-23T18:36:15;27.20;48.60
65235;DHT22;51820;48.374;10.930;2022-07-23T18:38:46;27.70;41.10
65235;DHT22;51820;48.374;10.930;2022-07-23T18:41:21;26.60;48.80
65235;DHT22;51820;48.374;10.930;2022-07-23T18:43:51;27.70;42.00
65235;DHT22;51820;48.374;10.930;2022-07-23T18:46:20;27.00;48.80
65235;DHT22;51820;48.374;10.930;2022-07-23T18:48:48;26.80;49.10
65235;DHT22;51820;48.374;10.930;2022-07-23T18:53:47;27.60;48.60